Accueil
METAR-TAF:

METAR-TAF

Aéroports :

Péninsule de Gove, Australie

latitude: 12-16-12S, longitude: 136-49-06E, altitude: 62 m

Observation

Le bulletin a été fait il y a 29 minutes, à 03:30 UTC
Vent 17 kt de sud-est
Température 26°C
Humidité 70%
Pression 1015 hPa
Visibilité 10 km ou plus
Nuages épars à une hauteur de 2500 ft
Nuages fragmentés à une hauteur de 3100 ft
Nuages fragmentés à une hauteur de 4000 ft

METAR: YPGV 220330Z AUTO 13017KT 9999 // SCT025 BKN031 BKN040 26/20 Q1015

Heure: 13:29 (03:59 UTC)

Prévision

Le bulletin a été fait il y a 3 heures et 27 minutes, à 00:32 UTC
Prévision valable du 22 à 02 UTC au 22 à 14 UTC
Vent 18 kt de sud-est
Visibilité 10 km ou plus
Nuages épars à une hauteur de 2500 ft
A partir de 22 à 0900 UTC
Vent 12 kt de sud/sud-est
Visibilité 10 km ou plus
Nuages épars à une hauteur de 2000 ft

TAF: YPGV 220032Z 2202/2214 14018KT 9999 SCT025 FM220900 15012KT 9999 SCT020

Observations et prévisions météorologiques de plus de 4000 aéroports (messages METAR et TAF).

Les stations disponibles sont représentées par des disques jaunes et rouges sur la carte.

Passer la souris dessus pour voir le nom de la station.

Cliquer dessus pour voir les observations et prévisions météorologiques.

Pour changer de carte: cliquez sur les boutons verts avec une croix noire pour zoomer, sur le bouton vert avec un tiret pour effectuer un zoom arrière, ou sur les flèches vertes pour les cartes adjacentes.


METAR-TAF: